Accueil
METAR-TAF:

METAR-TAF

Aéroports :

Aéroport international d'Hewanorra

Vieux-Fort, Sainte-Lucie

latitude: 13-45N, longitude: 060-57W, altitude: 3 m

Observation

Le bulletin a été fait il y a 1 heure et 6 minutes, à 09:00 UTC
Vent 5 kt de nord-est
Température 24°C
Humidité 89%
Pression 1012 hPa
Visibilité 10 km ou plus
Quelques nuages à une hauteur de 2300 ft

METAR: TLPL 020900Z 04005KT 9999 FEW023 24/22 Q1012 NOSIG

Heure: 06:06 (10:06 UTC)

Prévision

Le bulletin a été fait il y a 11 heures et 6 minutes, à 23:00 UTC
Prévision valable du 02 à 00 UTC au 02 à 24 UTC
Vent 12 kt de est/nord-est
Visibilité 10 km ou plus
Nuages épars à une hauteur de 2300 ft
Probabilité 30% :
Temporairement
du 02 à 06 UTC au 02 à 12 UTC
averses de pluie

TAF: TLPL 012300Z 0200/0224 06012KT 9999 SCT023 PROB30 TEMPO 0206/0212 SHRA

Observations et prévisions météorologiques de plus de 4000 aéroports (messages METAR et TAF).

Les stations disponibles sont représentées par des disques jaunes et rouges sur la carte.

Passer la souris dessus pour voir le nom de la station.

Cliquer dessus pour voir les observations et prévisions météorologiques.

Pour changer de carte: cliquez sur les boutons verts avec une croix noire pour zoomer, sur le bouton vert avec un tiret pour effectuer un zoom arrière, ou sur les flèches vertes pour les cartes adjacentes.


METAR-TAF: